createdAt,value
2019-03-23T00:01:25.162Z,101.23
2019-03-23T00:03:56.906Z,108.87
2019-03-23T00:06:31.065Z,106.47
2019-03-23T00:09:02.203Z,103.97
2019-03-23T00:11:37.204Z,105.67
2019-03-23T00:14:08.914Z,103.97
2019-03-23T00:16:42.884Z,96.80
2019-03-23T00:19:14.855Z,96.20
2019-03-23T00:21:46.506Z,105.63
2019-03-23T00:24:18.205Z,103.47
2019-03-23T00:26:49.794Z,97.57
2019-03-23T00:29:21.445Z,109.47
2019-03-23T00:31:53.735Z,112.33
2019-03-23T00:34:25.834Z,108.77
2019-03-23T00:36:57.554Z,103.07
2019-03-23T00:39:29.316Z,100.77
2019-03-23T00:42:01.024Z,107.67
2019-03-23T00:44:33.444Z,103.03
2019-03-23T00:47:05.434Z,101.70
2019-03-23T00:49:37.199Z,99.57
2019-03-23T00:52:08.787Z,99.00
2019-03-23T00:54:40.484Z,97.83
2019-03-23T00:57:12.143Z,100.47
2019-03-23T00:59:44.044Z,97.17
2019-03-23T01:02:16.290Z,85.97
2019-03-23T01:07:25.394Z,87.87
2019-03-23T01:09:56.984Z,96.33
2019-03-23T01:12:28.682Z,92.60
2019-03-23T01:15:00.434Z,90.47
2019-03-23T01:17:32.434Z,87.37
2019-03-23T01:20:08.154Z,92.17
2019-03-23T01:22:41.077Z,92.97
2019-03-23T01:25:12.714Z,93.60
2019-03-23T01:27:44.412Z,88.60
2019-03-23T01:30:16.062Z,89.53
2019-03-23T01:32:48.194Z,89.47
2019-03-23T01:35:19.905Z,88.83
2019-03-23T01:37:51.572Z,85.77
2019-03-23T01:40:23.195Z,88.37
2019-03-23T01:42:54.921Z,84.43
2019-03-23T01:45:26.707Z,75.73
2019-03-23T01:47:58.394Z,64.70
2019-03-23T01:50:30.064Z,71.17
2019-03-23T01:53:01.774Z,52.60
2019-03-23T01:55:33.374Z,47.57
2019-03-23T01:58:05.051Z,52.20
2019-03-23T02:00:36.635Z,61.83
2019-03-23T02:03:08.763Z,56.53
2019-03-23T02:05:40.353Z,51.63
2019-03-23T02:08:12.362Z,52.80
2019-03-23T02:10:43.954Z,59.43
2019-03-23T02:13:15.712Z,64.70
2019-03-23T02:15:47.264Z,74.63
2019-03-23T02:18:19.443Z,78.23
2019-03-23T02:20:52.173Z,65.60
2019-03-23T02:23:23.914Z,47.97
2019-03-23T02:25:55.484Z,70.37
2019-03-23T02:28:27.214Z,66.23
2019-03-23T02:30:58.876Z,48.43
2019-03-23T02:33:31.005Z,49.97
2019-03-23T02:36:02.668Z,47.93
2019-03-23T02:38:34.285Z,48.67
2019-03-23T02:41:05.877Z,45.47
2019-03-23T02:43:37.634Z,42.53
2019-03-23T02:46:09.315Z,42.90
2019-03-23T02:48:41.088Z,47.50
2019-03-23T02:51:14.080Z,46.00
2019-03-23T02:53:45.936Z,42.23
2019-03-23T02:56:17.552Z,46.70
2019-03-23T02:58:50.535Z,50.03
2019-03-23T03:01:22.195Z,48.83
2019-03-23T03:03:54.344Z,44.47
2019-03-23T03:06:25.995Z,45.37
2019-03-23T03:08:57.835Z,47.20
2019-03-23T03:11:29.518Z,46.63
2019-03-23T03:14:01.365Z,48.27
2019-03-23T03:16:33.064Z,49.27
2019-03-23T03:19:05.044Z,44.03
2019-03-23T03:21:36.678Z,44.77
2019-03-23T03:24:08.405Z,43.20
2019-03-23T03:26:40.003Z,42.23
2019-03-23T03:29:11.748Z,42.70
2019-03-23T03:31:43.317Z,43.13
2019-03-23T03:34:15.405Z,44.47
2019-03-23T03:36:47.035Z,44.30
2019-03-23T03:39:18.839Z,42.60
2019-03-23T03:41:50.565Z,42.73
2019-03-23T03:44:22.329Z,44.00
2019-03-23T03:46:53.885Z,43.43
2019-03-23T03:49:26.675Z,45.53
2019-03-23T03:51:58.284Z,48.93
2019-03-23T03:54:29.994Z,43.30
2019-03-23T03:57:01.564Z,40.13
2019-03-23T03:59:33.277Z,39.97
2019-03-23T04:02:04.954Z,41.73
2019-03-23T04:04:37.163Z,43.53
2019-03-23T04:07:08.735Z,44.30
2019-03-23T04:09:40.607Z,45.70
2019-03-23T04:12:12.344Z,44.43
2019-03-23T04:14:44.025Z,44.37
2019-03-23T04:17:15.583Z,45.37
2019-03-23T04:19:47.595Z,44.30
2019-03-23T04:22:19.279Z,44.07
2019-03-23T04:24:51.067Z,44.47
2019-03-23T04:27:22.635Z,44.03
2019-03-23T04:29:54.408Z,44.87
2019-03-23T04:32:26.086Z,44.67
2019-03-23T04:34:58.474Z,43.77
2019-03-23T04:37:30.154Z,45.23
2019-03-23T04:40:01.847Z,49.47
2019-03-23T04:42:33.474Z,45.03
2019-03-23T04:45:06.464Z,45.20
2019-03-23T04:47:38.154Z,46.07
2019-03-23T04:50:10.874Z,49.03
2019-03-23T04:52:42.644Z,46.50
2019-03-23T04:55:14.304Z,45.17
2019-03-23T04:57:45.873Z,48.13
2019-03-23T05:00:18.073Z,48.53
2019-03-23T05:02:49.634Z,45.90
2019-03-23T05:05:21.594Z,48.07
2019-03-23T05:07:53.476Z,49.93
2019-03-23T05:10:25.233Z,44.73
2019-03-23T05:12:56.829Z,52.70
2019-03-23T05:15:28.622Z,46.10
2019-03-23T05:18:00.184Z,46.53
2019-03-23T05:20:35.523Z,49.73
2019-03-23T05:23:07.104Z,48.07
2019-03-23T05:25:39.935Z,49.37
2019-03-23T05:28:11.504Z,58.37
2019-03-23T05:30:43.180Z,54.33
2019-03-23T05:33:14.864Z,53.67
2019-03-23T05:35:47.040Z,57.70
2019-03-23T05:38:18.674Z,56.87
2019-03-23T11:48:49.248Z,5.65
2019-03-23T11:51:21.264Z,5.53
2019-03-23T11:53:53.004Z,5.30
2019-03-23T11:56:25.274Z,6.30
2019-03-23T11:58:57.164Z,6.13
2019-03-23T12:01:28.754Z,6.20
2019-03-23T12:04:00.454Z,6.27
2019-03-23T12:06:32.164Z,6.30
2019-03-23T12:09:04.816Z,5.83
2019-03-23T12:11:36.504Z,5.70
2019-03-23T12:14:08.264Z,5.83
2019-03-23T12:16:39.850Z,5.80
2019-03-23T12:19:11.874Z,5.73
2019-03-23T12:21:44.034Z,5.97
2019-03-23T12:24:15.824Z,6.80
2019-03-23T12:26:47.895Z,9.43
2019-03-23T12:29:19.524Z,6.60
2019-03-23T12:31:51.114Z,6.57
2019-03-23T12:34:22.862Z,6.93
2019-03-23T12:36:54.524Z,7.53
2019-03-23T12:39:26.254Z,8.63
2019-03-23T12:41:57.865Z,6.10
2019-03-23T12:44:29.876Z,7.40
2019-03-23T12:47:02.792Z,6.47
2019-03-23T12:49:35.224Z,7.10
2019-03-23T12:52:09.484Z,5.67
2019-03-23T12:54:42.354Z,6.00
2019-03-23T12:57:13.904Z,6.87
2019-03-23T12:59:45.684Z,7.83
2019-03-23T13:02:17.314Z,7.20
2019-03-23T13:04:50.632Z,7.40
2019-03-23T13:07:22.364Z,7.20
2019-03-23T13:09:54.184Z,7.43
2019-03-23T13:12:25.743Z,8.00
2019-03-23T13:14:57.449Z,7.70
2019-03-23T13:17:29.147Z,7.87
2019-03-23T13:20:00.865Z,8.47
2019-03-23T13:22:33.093Z,7.63
2019-03-23T13:25:07.924Z,7.37
2019-03-23T13:27:39.504Z,7.83
2019-03-23T13:30:13.064Z,8.11
2019-03-23T13:32:44.824Z,8.10
2019-03-23T13:35:16.784Z,9.30
2019-03-23T13:37:48.708Z,8.27
2019-03-23T13:40:20.674Z,7.80
2019-03-23T13:42:52.584Z,9.30
2019-03-23T13:45:24.703Z,10.13
2019-03-23T13:47:56.742Z,8.07
2019-03-23T13:50:29.162Z,8.70
2019-03-23T13:53:02.228Z,8.00
2019-03-23T13:55:34.575Z,7.87
2019-03-23T13:58:08.568Z,10.50
2019-03-23T14:00:40.762Z,9.50
2019-03-23T14:03:12.544Z,8.63
2019-03-23T14:05:44.952Z,9.27
2019-03-23T14:08:17.185Z,10.13
2019-03-23T14:10:49.145Z,7.97
2019-03-23T14:13:21.948Z,8.50
2019-03-23T14:15:53.692Z,9.07
2019-03-23T14:18:25.304Z,7.50
2019-03-23T14:20:57.752Z,10.77
2019-03-23T14:23:30.033Z,9.33
2019-03-23T14:26:02.814Z,8.87
2019-03-23T14:28:34.592Z,11.13
2019-03-23T14:31:06.264Z,8.83
2019-03-23T14:33:40.064Z,8.87
2019-03-23T14:36:11.554Z,10.17
2019-03-23T14:38:43.223Z,9.60
2019-03-23T14:41:14.893Z,7.63
2019-03-23T14:43:46.534Z,8.53
2019-03-23T14:46:18.194Z,8.83
2019-03-23T14:48:50.575Z,8.13
2019-03-23T14:51:22.904Z,8.20
2019-03-23T14:53:55.701Z,8.63
2019-03-23T14:56:31.481Z,8.43
2019-03-23T14:59:00.915Z,8.37
2019-03-23T15:01:32.742Z,9.00
2019-03-23T15:04:04.323Z,8.80
2019-03-23T15:06:36.045Z,8.40
2019-03-23T15:09:08.224Z,8.33
2019-03-23T15:11:40.103Z,8.90
2019-03-23T15:14:12.404Z,9.27
2019-03-23T15:16:44.111Z,8.70
2019-03-23T15:19:16.145Z,9.20
2019-03-23T15:21:48.432Z,8.80
2019-03-23T15:24:20.486Z,8.40
2019-03-23T15:26:52.204Z,8.97
2019-03-23T15:29:23.904Z,8.97
2019-03-23T15:31:55.566Z,8.83
2019-03-23T15:34:27.174Z,8.00
2019-03-23T15:36:59.243Z,8.23
2019-03-23T15:39:30.932Z,8.07
2019-03-23T15:42:02.707Z,11.13
2019-03-23T15:44:35.783Z,8.77
2019-03-23T15:47:07.587Z,9.13
2019-03-23T15:49:39.314Z,9.00
2019-03-23T15:52:12.294Z,8.53
2019-03-23T15:54:44.155Z,10.93
2019-03-23T15:57:15.864Z,9.73
2019-03-23T15:59:48.334Z,15.70
2019-03-23T16:02:20.464Z,17.27
2019-03-23T16:04:52.085Z,20.47
2019-03-23T16:07:29.470Z,11.63
2019-03-23T16:09:58.205Z,12.73
2019-03-23T16:12:34.844Z,13.30
2019-03-23T16:15:05.667Z,13.80
2019-03-23T16:17:37.324Z,13.10
2019-03-23T16:20:09.864Z,11.27
2019-03-23T16:22:41.760Z,13.10
2019-03-23T16:25:14.368Z,20.03
2019-03-23T16:27:46.605Z,23.90
2019-03-23T16:30:20.552Z,22.47
2019-03-23T16:32:52.544Z,27.17
2019-03-23T16:35:24.376Z,14.30
2019-03-23T16:37:56.114Z,20.93
2019-03-23T16:40:27.725Z,19.83
2019-03-23T16:42:59.627Z,25.63
2019-03-23T16:45:31.468Z,25.37
2019-03-23T16:48:03.230Z,25.67
2019-03-23T16:50:34.924Z,24.57
2019-03-23T16:53:07.505Z,31.07
2019-03-23T16:55:39.824Z,42.00
2019-03-23T16:58:16.029Z,26.87
2019-03-23T17:00:45.408Z,32.17
2019-03-23T17:03:17.144Z,30.03
2019-03-23T17:05:48.984Z,48.73
2019-03-23T17:08:20.802Z,36.23
2019-03-23T17:10:52.674Z,28.60
2019-03-23T17:13:24.524Z,33.67
2019-03-23T17:15:56.254Z,36.90
2019-03-23T17:18:28.605Z,37.23
2019-03-23T17:21:00.500Z,38.17
2019-03-23T17:23:32.326Z,34.80
2019-03-23T17:26:04.455Z,31.60
2019-03-23T17:28:36.452Z,65.07
2019-03-23T17:31:08.255Z,85.63
2019-03-23T17:33:43.765Z,64.77
2019-03-23T17:36:16.024Z,54.40
2019-03-23T17:38:47.823Z,55.07
2019-03-23T17:41:19.635Z,50.93
2019-03-23T17:43:51.430Z,50.57
2019-03-23T17:46:23.224Z,50.13
2019-03-23T17:48:54.955Z,52.10
2019-03-23T17:51:26.592Z,49.47
2019-03-23T17:53:59.515Z,48.00
2019-03-23T17:56:31.752Z,47.03
2019-03-23T17:59:05.114Z,48.87
2019-03-23T18:01:36.964Z,52.93
2019-03-23T18:04:08.681Z,51.03
2019-03-23T18:06:41.472Z,48.03
2019-03-23T18:09:13.274Z,49.77
2019-03-23T18:11:45.084Z,49.77
2019-03-23T18:14:17.101Z,56.87
2019-03-23T18:16:49.124Z,57.03
2019-03-23T18:19:20.994Z,53.53
2019-03-23T18:21:52.754Z,59.17
2019-03-23T18:24:24.454Z,53.60
2019-03-23T18:26:56.425Z,53.83
2019-03-23T18:29:28.184Z,59.47
2019-03-23T18:32:01.504Z,59.00
2019-03-23T18:34:33.305Z,65.87
2019-03-23T18:37:05.094Z,71.10
2019-03-23T18:39:37.163Z,69.43
2019-03-23T18:42:10.144Z,65.63
2019-03-23T18:44:42.124Z,69.90
2019-03-23T18:47:13.914Z,65.23
2019-03-23T18:49:45.984Z,66.00
2019-03-23T18:52:17.814Z,65.83
2019-03-23T18:54:50.004Z,64.33
2019-03-23T18:57:23.184Z,66.17
2019-03-23T18:59:54.974Z,64.67
2019-03-23T19:02:26.644Z,74.17
2019-03-23T19:04:58.387Z,81.00
2019-03-23T19:07:30.084Z,86.03
2019-03-23T19:10:02.064Z,76.73
2019-03-23T19:12:33.705Z,82.60
2019-03-23T19:15:05.934Z,75.17
2019-03-23T19:17:37.624Z,76.17
2019-03-23T19:20:09.614Z,88.10
2019-03-23T19:22:41.244Z,101.10
2019-03-23T19:25:18.141Z,104.60
2019-03-23T19:27:49.069Z,111.23
2019-03-23T19:30:20.614Z,107.30
2019-03-23T19:32:52.305Z,97.00
2019-03-23T19:35:24.404Z,107.47
2019-03-23T19:37:56.105Z,116.20
2019-03-23T19:40:27.779Z,106.90
2019-03-23T19:42:59.786Z,111.17
2019-03-23T19:45:31.914Z,105.50
2019-03-23T19:48:03.675Z,109.87
2019-03-23T19:50:35.544Z,108.93
2019-03-23T19:53:07.304Z,104.13
2019-03-23T19:55:39.624Z,100.17
2019-03-23T19:58:11.744Z,104.53
2019-03-23T20:00:43.504Z,92.73
2019-03-23T20:03:15.484Z,87.60
2019-03-23T20:05:47.814Z,77.87
2019-03-23T20:08:19.523Z,77.63
2019-03-23T20:10:51.514Z,79.13
2019-03-23T20:13:23.154Z,82.07
2019-03-23T20:15:55.442Z,72.13
2019-03-23T20:18:27.566Z,78.73
2019-03-23T20:20:59.624Z,70.83
2019-03-23T20:23:31.418Z,74.17
2019-03-23T20:26:03.854Z,75.40
2019-03-23T20:28:36.234Z,74.00
2019-03-23T20:31:08.364Z,80.73
2019-03-23T20:33:40.442Z,73.33
2019-03-23T20:36:12.404Z,84.97
2019-03-23T20:38:44.135Z,90.40
2019-03-23T20:41:15.774Z,92.70
2019-03-23T20:43:48.344Z,86.07
2019-03-23T20:46:20.274Z,92.33
2019-03-23T20:48:52.292Z,92.10
2019-03-23T20:51:24.304Z,90.03
2019-03-23T20:53:56.667Z,89.17
2019-03-23T20:56:30.024Z,86.33
2019-03-23T20:59:03.522Z,87.93
2019-03-23T21:01:35.342Z,86.63
2019-03-23T21:04:08.144Z,81.67
2019-03-23T21:06:39.924Z,85.77
2019-03-23T21:09:11.525Z,81.87
2019-03-23T21:11:43.294Z,77.33
2019-03-23T21:14:20.251Z,81.83
2019-03-23T21:16:48.790Z,55.67
2019-03-23T21:19:20.573Z,61.80
2019-03-23T21:21:52.464Z,53.97
2019-03-23T21:24:24.174Z,47.13
2019-03-23T21:26:55.934Z,37.80
2019-03-23T21:29:28.074Z,38.83
2019-03-23T21:31:59.844Z,41.60
2019-03-23T21:34:31.707Z,42.50
2019-03-23T21:37:03.404Z,42.30
2019-03-23T21:39:35.192Z,38.83
2019-03-23T21:42:07.276Z,38.87
2019-03-23T21:44:38.984Z,38.90
2019-03-23T21:47:11.031Z,41.17
2019-03-23T21:49:42.645Z,43.27
2019-03-23T21:52:14.904Z,44.97
2019-03-23T21:54:46.545Z,43.57
2019-03-23T21:57:18.857Z,39.70
2019-03-23T21:59:51.184Z,41.47
2019-03-23T22:02:23.105Z,40.37
2019-03-23T22:04:54.944Z,42.33
2019-03-23T22:07:27.344Z,41.47
2019-03-23T22:09:59.054Z,40.57
2019-03-23T22:12:30.874Z,41.60
2019-03-23T22:15:04.059Z,42.07
2019-03-23T22:17:36.232Z,42.67
2019-03-23T22:20:08.132Z,42.87
2019-03-23T22:22:40.272Z,44.20
2019-03-23T22:25:12.065Z,43.53
2019-03-23T22:27:43.744Z,43.33
2019-03-23T22:30:16.234Z,43.03
2019-03-23T22:32:47.945Z,40.83
2019-03-23T22:35:19.607Z,40.53
2019-03-23T22:37:51.384Z,37.63
2019-03-23T22:40:23.363Z,38.03
2019-03-23T22:42:55.572Z,37.73
2019-03-23T22:45:27.371Z,35.60
2019-03-23T22:47:59.731Z,34.00
2019-03-23T22:50:31.404Z,30.77
2019-03-23T22:53:03.117Z,31.20
2019-03-23T22:55:34.952Z,29.07
2019-03-23T22:58:07.224Z,30.57
2019-03-23T23:00:43.389Z,30.57
2019-03-23T23:03:15.403Z,27.93
2019-03-23T23:05:47.034Z,29.47
2019-03-23T23:08:20.044Z,28.90
2019-03-23T23:10:51.934Z,30.23
2019-03-23T23:13:23.785Z,30.17
2019-03-23T23:15:55.472Z,29.27
2019-03-23T23:18:27.463Z,25.63
2019-03-23T23:20:59.223Z,24.87
2019-03-23T23:23:31.464Z,25.23
2019-03-23T23:26:03.324Z,24.90
2019-03-23T23:28:35.125Z,23.17
2019-03-23T23:31:07.503Z,25.20
2019-03-23T23:33:39.266Z,23.90
2019-03-23T23:36:11.658Z,24.50
2019-03-23T23:38:43.604Z,23.60
2019-03-23T23:41:15.242Z,24.73
2019-03-23T23:43:46.983Z,23.73
2019-03-23T23:46:19.044Z,24.10
2019-03-23T23:48:51.634Z,23.33
2019-03-23T23:51:23.503Z,23.70
2019-03-23T23:53:55.504Z,23.50
2019-03-23T23:56:27.264Z,22.77
2019-03-23T23:58:59.555Z,24.93
